Fjordprinsessen — LJVE — position and weather

sailwx.info

Track history (hours):
 
Tides and Currents Weather Stations Pressure Air Temp Water Temp Dewpoint Dewpoint Depression Visibility Wind Speed Wind Dir Waves Ship Positions

Fjordprinsessen

Last reported at 2017-Jul-24 08:29 UTC. Time now 2017-Jul-24 08:41 UTC.
Position N 67°17' E 014°22'.

Length 30 m.

Type: High speed craft. MMSI: 259604000.

Date/timePositionNaut miles runAvg speedWind from/ knotsBaromVisibWave heightAir tempDewpointWater temp
2017-Jul-24 08:29N 67°17' E 014°22'2 4.6
2017-Jul-24 08:01N 67°17' E 014°17'1019.6
2017-Jul-24 07:31N 67°16' E 013°51'714.2
2017-Jul-24 07:01N 67°23' E 013°51'4 8.7
2017-Jul-24 06:30N 67°25' E 014°01'713.9
2017-Jul-24 06:01N 67°21' E 014°15'510.1
2017-Jul-24 05:30N 67°17' E 014°22'0 0.3
2017-Jul-24 05:01N 67°17' E 014°22'1018.8
2017-Jul-24 04:30N 67°25' E 014°07'5 9.2
2017-Jul-24 03:58N 67°24' E 013°54'0 0.0
2017-Jul-24 03:28N 67°24' E 013°54'0 0.0
2017-Jul-24 02:58N 67°24' E 013°54'0 0.0
2017-Jul-24 02:28N 67°24' E 013°54'0 0.0
2017-Jul-24 01:58N 67°24' E 013°54'0 0.0
2017-Jul-24 01:28N 67°24' E 013°54'0 0.0
2017-Jul-24 00:58N 67°24' E 013°54'0 0.0
2017-Jul-24 00:28N 67°24' E 013°54'0 0.0
2017-Jul-23 23:58N 67°24' E 013°54'0 0.0
2017-Jul-23 23:28N 67°24' E 013°54'0 0.0
2017-Jul-23 22:58N 67°24' E 013°54'0 0.0
2017-Jul-23 22:28N 67°24' E 013°54'0 0.0
2017-Jul-23 21:58N 67°24' E 013°54'0 0.0
2017-Jul-23 21:28N 67°24' E 013°54'0 0.0
2017-Jul-23 20:58N 67°24' E 013°54'0 0.0
2017-Jul-23 20:28N 67°24' E 013°54'0 0.0
2017-Jul-23 19:58N 67°24' E 013°54'2 4.9
2017-Jul-23 19:30N 67°26' E 013°59'1224.9
2017-Jul-23 19:01N 67°17' E 014°22'0 0.3
2017-Jul-23 18:30N 67°17' E 014°22'1020.8
2017-Jul-23 18:01N 67°10' E 014°03'918.3
2017-Jul-23 17:30N 67°03' E 013°47'1121.9
2017-Jul-23 17:00N 66°56' E 013°26'815.5
2017-Jul-23 16:30N 66°50' E 013°41'1121.1
2017-Jul-23 16:00N 66°48' E 013°14'714.2
2017-Jul-23 15:30N 66°41' E 013°14'815.8
2017-Jul-23 15:00N 66°36' E 012°59'815.2
2017-Jul-23 14:30N 66°28' E 012°57'917.8
2017-Jul-23 14:00N 66°19' E 012°53'918.6
2017-Jul-23 13:30N 66°10' E 012°58'1121.4
2017-Jul-23 13:00N 66°05' E 012°35'4 7.3
2017-Jul-23 12:29N 66°01' E 012°38'0 0.0
2017-Jul-23 11:56N 66°01' E 012°38'0 0.0
2017-Jul-23 11:29N 66°01' E 012°38'0 0.0
2017-Jul-23 10:59N 66°01' E 012°38'0 0.0
2017-Jul-23 10:29N 66°01' E 012°38'0 0.0
2017-Jul-23 09:59N 66°01' E 012°38'0 0.0
2017-Jul-23 09:29N 66°01' E 012°38'0 0.0
2017-Jul-23 08:56N 66°01' E 012°38'0 0.0
2017-Jul-23 08:29N 66°01' E 012°38'0 0.0
2017-Jul-23 07:59N 66°01' E 012°38'0 0.0
2017-Jul-23 07:29N 66°01' E 012°38'0 0.0
2017-Jul-23 06:53N 66°01' E 012°38'0 0.0
2017-Jul-23 06:29N 66°01' E 012°38'0 0.0
2017-Jul-23 05:56N 66°01' E 012°38'0 0.0
2017-Jul-23 05:29N 66°01' E 012°38'0 0.0
2017-Jul-23 04:59N 66°01' E 012°38'0 0.0
2017-Jul-23 04:29N 66°01' E 012°38'0 0.0
2017-Jul-23 03:59N 66°01' E 012°38'0 0.0
2017-Jul-23 03:29N 66°01' E 012°38'0 0.0
2017-Jul-23 02:59N 66°01' E 012°38'0 0.0
2017-Jul-23 02:29N 66°01' E 012°38'0 0.0
2017-Jul-23 01:59N 66°01' E 012°38'0 0.0
2017-Jul-23 01:29N 66°01' E 012°38'0 0.0
2017-Jul-23 00:59N 66°01' E 012°38'0 0.0
2017-Jul-23 00:29N 66°01' E 012°38'0 0.0
2017-Jul-22 23:59N 66°01' E 012°38'0 0.0
2017-Jul-22 23:29N 66°01' E 012°38'0 0.0
2017-Jul-22 22:59N 66°01' E 012°38'0 0.0
2017-Jul-22 22:29N 66°01' E 012°38'0 0.0
2017-Jul-22 21:59N 66°01' E 012°38'0 0.0
2017-Jul-22 21:29N 66°01' E 012°38'0 0.0
2017-Jul-22 20:59N 66°01' E 012°38'0 0.0
2017-Jul-22 20:29N 66°01' E 012°38'0 0.0
2017-Jul-22 20:00N 66°01' E 012°38'510.7
2017-Jul-22 19:30N 66°06' E 012°43'919.0
2017-Jul-22 19:00N 66°14' E 012°55'916.9
2017-Jul-22 18:30N 66°22' E 012°49'815.5
2017-Jul-22 18:00N 66°29' E 012°58'815.1
2017-Jul-22 17:30N 66°37' E 012°60'714.6
2017-Jul-22 17:00N 66°40' E 013°15'816.2
2017-Jul-22 16:30N 66°48' E 013°14'1120.9
2017-Jul-22 16:00N 66°51' E 013°41'815.5
2017-Jul-22 15:30N 66°56' E 013°26'1122.1
2017-Jul-22 15:00N 67°03' E 013°47'2019.8
2017-Jul-22 14:00N 67°17' E 014°22'0 0.0
2017-Jul-22 13:30N 67°17' E 014°22'0 0.0
2017-Jul-22 13:00N 67°17' E 014°22'0 0.0
2017-Jul-22 12:30N 67°17' E 014°22'0 0.0
2017-Jul-22 12:00N 67°17' E 014°22'0 0.0
2017-Jul-22 11:30N 67°17' E 014°22'0 0.0
2017-Jul-22 11:00N 67°17' E 014°22'0 0.0
2017-Jul-22 10:30N 67°17' E 014°22'0 0.0
2017-Jul-22 10:00N 67°17' E 014°22'0 0.0
2017-Jul-22 09:30N 67°17' E 014°22'0 0.0
2017-Jul-22 09:00N 67°17' E 014°22'0 0.0
2017-Jul-22 08:30N 67°17' E 014°22'0 0.0
2017-Jul-22 08:00N 67°17' E 014°22'0 0.8
2017-Jul-22 07:30N 67°17' E 014°23'612.2
2017-Jul-22 07:01N 67°13' E 014°11'714.5
2017-Jul-22 06:31N 67°08' E 013°58'510.0
2017-Jul-22 06:01N 67°10' E 013°47'1427.9
2017-Jul-22 05:31N 67°17' E 014°19'1 2.7
2017-Jul-22 05:00N 67°17' E 014°22'0 0.0
2017-Jul-22 04:30N 67°17' E 014°22'0 0.0
2017-Jul-22 04:00N 67°17' E 014°22'0 0.0
2017-Jul-22 03:30N 67°17' E 014°22'0 0.0
2017-Jul-22 02:59N 67°17' E 014°22'0 0.0
2017-Jul-22 02:29N 67°17' E 014°22'0 0.0
2017-Jul-22 01:59N 67°17' E 014°22'0 0.0
2017-Jul-22 01:29N 67°17' E 014°22'0 0.0
2017-Jul-22 00:59N 67°17' E 014°22'0 0.0
2017-Jul-22 00:29N 67°17' E 014°22'0 0.0
2017-Jul-21 23:59N 67°17' E 014°22'0 0.0
2017-Jul-21 23:29N 67°17' E 014°22'0 0.0
2017-Jul-21 22:59N 67°17' E 014°22'0 0.0
2017-Jul-21 22:29N 67°17' E 014°22'0 0.0
2017-Jul-21 21:59N 67°17' E 014°22'0 0.0
2017-Jul-21 21:29N 67°17' E 014°22'0 0.0
2017-Jul-21 20:59N 67°17' E 014°22'0 0.0
2017-Jul-21 20:29N 67°17' E 014°22'0 0.0
2017-Jul-21 19:59N 67°17' E 014°22'0 0.0
2017-Jul-21 19:29N 67°17' E 014°22'0 0.0
2017-Jul-21 18:59N 67°17' E 014°22'0 0.0
2017-Jul-21 18:29N 67°17' E 014°22'0 0.0
2017-Jul-21 17:59N 67°17' E 014°22'0 0.0
2017-Jul-21 17:29N 67°17' E 014°22'0 0.0
2017-Jul-21 16:59N 67°17' E 014°22'0 0.0
2017-Jul-21 16:30N 67°17' E 014°22'713.5
2017-Jul-21 16:00N 67°23' E 014°13'1224.6
2017-Jul-21 15:30N 67°18' E 013°43'714.3
2017-Jul-21 15:00N 67°24' E 013°54'612.3
2017-Jul-21 14:31N 67°24' E 014°10'917.7
2017-Jul-21 14:01N 67°17' E 014°22'0 0.0
2017-Jul-21 13:30N 67°17' E 014°22'0 0.0
2017-Jul-21 13:00N 67°17' E 014°22'713.5
2017-Jul-21 12:31N 67°23' E 014°13'714.4
2017-Jul-21 12:00N 67°24' E 013°54'714.2
2017-Jul-21 11:30N 67°24' E 014°12'816.0
2017-Jul-21 11:00N 67°17' E 014°22'0 0.2
2017-Jul-21 10:30N 67°17' E 014°22'0 0.8
2017-Jul-21 10:00N 67°17' E 014°23'0 0.8
2017-Jul-21 09:30N 67°17' E 014°22'0 0.0
2017-Jul-21 09:00N 67°17' E 014°22'0 0.0
2017-Jul-21 08:30N 67°17' E 014°22'0 0.0
2017-Jul-21 08:00N 67°17' E 014°22'0 0.0
2017-Jul-21 07:30N 67°17' E 014°22'0 0.0
2017-Jul-21 07:00N 67°17' E 014°22'0 0.0
2017-Jul-21 06:30N 67°17' E 014°22'0 0.0
2017-Jul-21 06:00N 67°17' E 014°22'0 0.0
2017-Jul-21 05:30N 67°17' E 014°22'1 2.9
2017-Jul-21 05:01N 67°16' E 014°19'1121.8
2017-Jul-21 04:30N 67°07' E 014°03'3 6.0
2017-Jul-21 04:00N 67°10' E 014°03'1019.4
2017-Jul-21 03:30N 67°17' E 014°22'0 0.0
2017-Jul-21 03:00N 67°17' E 014°22'0 0.0
2017-Jul-21 02:30N 67°17' E 014°22'0 0.0
2017-Jul-21 02:00N 67°17' E 014°22'0 0.0
2017-Jul-21 01:30N 67°17' E 014°22'0 0.0
2017-Jul-21 01:00N 67°17' E 014°22'0 0.0
2017-Jul-21 00:30N 67°17' E 014°22'0 0.0
2017-Jul-21 00:00N 67°17' E 014°22'0 0.0
2017-Jul-20 23:30N 67°17' E 014°22'0 0.0
2017-Jul-20 23:00N 67°17' E 014°22'0 0.0
2017-Jul-20 22:30N 67°17' E 014°22'0 0.0
2017-Jul-20 22:00N 67°17' E 014°22'0 0.0
2017-Jul-20 21:30N 67°17' E 014°22'0 0.0
2017-Jul-20 21:00N 67°17' E 014°22'0 0.0
2017-Jul-20 20:30N 67°17' E 014°22'714.7
2017-Jul-20 20:00N 67°17' E 014°04'918.8
2017-Jul-20 19:30N 67°10' E 013°46'510.2
2017-Jul-20 19:00N 67°08' E 013°58'1 2.9
2017-Jul-20 18:31N 67°08' E 014°02'1224.7
2017-Jul-20 18:01N 67°17' E 014°22'0 0.0
2017-Jul-20 17:30N 67°17' E 014°22'0 0.9
2017-Jul-20 17:00N 67°17' E 014°23'0 0.9
2017-Jul-20 16:30N 67°17' E 014°22'714.1
2017-Jul-20 16:01N 67°23' E 014°15'1325.1
2017-Jul-20 15:31N 67°19' E 013°45'713.7
2017-Jul-20 15:00N 67°24' E 013°54'1313.2
2017-Jul-20 14:01N 67°17' E 014°22'0 0.1
2017-Jul-20 13:30N 67°17' E 014°22'714.0
2017-Jul-20 13:00N 67°23' E 014°15'815.7
2017-Jul-20 12:30N 67°24' E 013°54'611.7
2017-Jul-20 12:00N 67°25' E 014°09'4 7.4
2017-Jul-20 11:31N 67°21' E 014°14'510.8
2017-Jul-20 11:00N 67°17' E 014°24'0 0.7
2017-Jul-20 10:30N 67°17' E 014°23'611.8
2017-Jul-20 10:01N 67°17' E 014°08'1019.3
2017-Jul-20 09:31N 67°11' E 013°49'4 8.0
2017-Jul-20 09:00N 67°07' E 013°54'4 7.9
2017-Jul-20 08:31N 67°09' E 014°03'1121.4
2017-Jul-20 08:01N 67°17' E 014°22'0 0.0
2017-Jul-20 07:30N 67°17' E 014°22'0 0.0
2017-Jul-20 07:00N 67°17' E 014°22'0 0.0
2017-Jul-20 06:30N 67°17' E 014°22'0 0.0
2017-Jul-20 06:00N 67°17' E 014°22'0 0.0
2017-Jul-20 05:30N 67°17' E 014°22'1 1.3
2017-Jul-20 05:01N 67°17' E 014°21'1223.5
2017-Jul-20 04:31N 67°07' E 014°03'3 6.2
2017-Jul-20 04:01N 67°10' E 014°04'1019.3
2017-Jul-20 03:30N 67°17' E 014°22'0 0.0
2017-Jul-20 02:58N 67°17' E 014°22'0 0.0
2017-Jul-20 02:28N 67°17' E 014°22'0 0.0
2017-Jul-20 01:58N 67°17' E 014°22'0 0.0
2017-Jul-20 01:28N 67°17' E 014°22'0 0.0
2017-Jul-20 00:58N 67°17' E 014°22'0 0.0
2017-Jul-20 00:28N 67°17' E 014°22'0 0.0
2017-Jul-19 23:58N 67°17' E 014°22'0 0.0
2017-Jul-19 23:28N 67°17' E 014°22'0 0.0
2017-Jul-19 22:58N 67°17' E 014°22'0 0.0
2017-Jul-19 22:28N 67°17' E 014°22'0 0.0
2017-Jul-19 21:58N 67°17' E 014°22'0 0.0
2017-Jul-19 21:28N 67°17' E 014°22'0 0.0
2017-Jul-19 20:58N 67°17' E 014°22'0 0.0
2017-Jul-19 20:28N 67°17' E 014°22'0 0.0
2017-Jul-19 19:58N 67°17' E 014°22'1023.2
2017-Jul-19 19:31N 67°13' E 013°58'611.1
2017-Jul-19 19:01N 67°08' E 013°50'5 9.6
2017-Jul-19 18:31N 67°08' E 014°02'1224.2
2017-Jul-19 18:00N 67°17' E 014°22'0 0.1
2017-Jul-19 17:30N 67°17' E 014°22'0 0.0
2017-Jul-19 17:00N 67°17' E 014°22'1 1.4
2017-Jul-19 16:31N 67°17' E 014°24'917.0
2017-Jul-19 16:01N 67°17' E 014°02'917.7
2017-Jul-19 15:30N 67°10' E 013°46'4 7.2
2017-Jul-19 15:00N 67°08' E 013°53'4 7.0
2017-Jul-19 14:31N 67°07' E 014°02'1224.8
2017-Jul-19 14:01N 67°17' E 014°22'0 0.1
2017-Jul-19 13:30N 67°17' E 014°22'0 0.7
2017-Jul-19 13:00N 67°17' E 014°23'0 0.7
2017-Jul-19 12:28N 67°17' E 014°22'0 0.0
2017-Jul-19 11:58N 67°17' E 014°22'0 0.0
2017-Jul-19 11:31N 67°17' E 014°22'0 0.0
2017-Jul-19 11:01N 67°17' E 014°22'0 0.0
2017-Jul-19 10:31N 67°17' E 014°22'0 0.0
2017-Jul-19 10:00N 67°17' E 014°22'0 0.0
2017-Jul-19 09:30N 67°17' E 014°22'0 0.0
2017-Jul-19 09:00N 67°17' E 014°22'0 0.0
2017-Jul-19 08:30N 67°17' E 014°22'0 0.0
2017-Jul-19 08:00N 67°17' E 014°22'0 0.0
2017-Jul-19 07:30N 67°17' E 014°22'0 0.0
2017-Jul-19 07:00N 67°17' E 014°22'0 0.0
2017-Jul-19 06:30N 67°17' E 014°22'0 0.0
2017-Jul-19 06:00N 67°17' E 014°22'0 0.0
2017-Jul-19 05:30N 67°17' E 014°22'1 1.2
2017-Jul-19 05:00N 67°17' E 014°21'1222.5
2017-Jul-19 04:29N 67°07' E 014°03'3 6.8
2017-Jul-19 04:00N 67°11' E 014°05'917.9
2017-Jul-19 03:29N 67°17' E 014°22'0 0.0
2017-Jul-19 02:59N 67°17' E 014°22'0 0.0
2017-Jul-19 02:29N 67°17' E 014°22'0 0.0
2017-Jul-19 01:59N 67°17' E 014°22'0 0.0
2017-Jul-19 01:29N 67°17' E 014°22'0 0.0
2017-Jul-19 00:59N 67°17' E 014°22'0 0.0
2017-Jul-19 00:29N 67°17' E 014°22'0 0.0
2017-Jul-18 23:58N 67°17' E 014°22'0 0.0
2017-Jul-18 23:28N 67°17' E 014°22'0 0.0
2017-Jul-18 22:58N 67°17' E 014°22'0 0.0
2017-Jul-18 22:28N 67°17' E 014°22'0 0.0
2017-Jul-18 21:58N 67°17' E 014°22'0 0.0
2017-Jul-18 21:28N 67°17' E 014°22'0 0.0
2017-Jul-18 20:58N 67°17' E 014°22'0 0.0
2017-Jul-18 20:28N 67°17' E 014°22'0 0.0
2017-Jul-18 19:58N 67°17' E 014°22'0 0.0
2017-Jul-18 19:28N 67°17' E 014°22'0 0.0
2017-Jul-18 18:58N 67°17' E 014°22'0 0.0
2017-Jul-18 18:28N 67°17' E 014°22'0 0.0
2017-Jul-18 17:58N 67°17' E 014°22'0 0.0
2017-Jul-18 17:28N 67°17' E 014°22'0 0.4
2017-Jul-18 17:00N 67°17' E 014°23'1 2.7
2017-Jul-18 16:31N 67°18' E 014°22'815.6
2017-Jul-18 16:01N 67°21' E 014°02'510.1
2017-Jul-18 15:31N 67°22' E 013°50'4 8.8
2017-Jul-18 15:00N 67°25' E 013°57'1312.8
2017-Jul-18 14:00N 67°17' E 014°22'0 0.0
2017-Jul-18 13:30N 67°17' E 014°22'0 0.0
2017-Jul-18 13:00N 67°17' E 014°22'0 0.0
2017-Jul-18 12:30N 67°17' E 014°22'0 0.0
2017-Jul-18 12:00N 67°17' E 014°22'0 0.0
2017-Jul-18 11:30N 67°17' E 014°22'0 0.0
2017-Jul-18 11:00N 67°17' E 014°22'0 0.0
2017-Jul-18 10:30N 67°17' E 014°22'0 0.0
2017-Jul-18 10:00N 67°17' E 014°22'0 0.0
2017-Jul-18 09:30N 67°17' E 014°22'0 0.0
2017-Jul-18 09:00N 67°17' E 014°22'0 0.0
2017-Jul-18 08:30N 67°17' E 014°22'0 0.0
2017-Jul-18 08:01N 67°17' E 014°22'1 1.0
2017-Jul-18 07:31N 67°18' E 014°22'1019.3
2017-Jul-18 07:01N 67°25' E 014°06'4 8.8
2017-Jul-18 06:30N 67°24' E 013°54'816.6
2017-Jul-18 06:01N 67°21' E 014°14'510.8
2017-Jul-18 05:30N 67°17' E 014°22'1 1.4
2017-Jul-18 05:01N 67°17' E 014°21'1223.4
2017-Jul-18 04:30N 67°07' E 014°03'4 7.4
2017-Jul-18 04:00N 67°11' E 014°06'917.8
2017-Jul-18 03:30N 67°17' E 014°22'0 0.0
2017-Jul-18 02:58N 67°17' E 014°22'0 0.0
2017-Jul-18 02:28N 67°17' E 014°22'0 0.0
2017-Jul-18 01:58N 67°17' E 014°22'0 0.0
2017-Jul-18 01:28N 67°17' E 014°22'0 0.0
2017-Jul-18 00:58N 67°17' E 014°22'0 0.0
2017-Jul-18 00:28N 67°17' E 014°22'0 0.0
2017-Jul-17 23:58N 67°17' E 014°22'0 0.0
2017-Jul-17 23:28N 67°17' E 014°22'0 0.0
2017-Jul-17 22:58N 67°17' E 014°22'0 0.0
2017-Jul-17 22:28N 67°17' E 014°22'0 0.0
2017-Jul-17 21:58N 67°17' E 014°22'0 0.0
2017-Jul-17 21:31N 67°17' E 014°22'0 0.0
2017-Jul-17 21:01N 67°17' E 014°22'0 0.0
2017-Jul-17 20:31N 67°17' E 014°22'0 0.0
2017-Jul-17 20:00N 67°17' E 014°22'0 0.0
2017-Jul-17 19:30N 67°17' E 014°22'0 0.0
2017-Jul-17 19:00N 67°17' E 014°22'0 0.0
2017-Jul-17 18:30N 67°17' E 014°22'0 0.0
2017-Jul-17 18:00N 67°17' E 014°22'0 0.0
2017-Jul-17 17:30N 67°17' E 014°22'0 0.0
2017-Jul-17 17:00N 67°17' E 014°22'0 0.0
2017-Jul-17 16:30N 67°17' E 014°22'816.5
2017-Jul-17 16:00N 67°17' E 014°01'817.3
2017-Jul-17 15:30N 67°10' E 013°46'5 9.8
2017-Jul-17 15:00N 67°07' E 013°55'3 6.0
2017-Jul-17 14:31N 67°08' E 014°02'1223.5
2017-Jul-17 14:00N 67°17' E 014°22'1 1.3
2017-Jul-17 13:30N 67°17' E 014°24'0 0.2
2017-Jul-17 13:01N 67°17' E 014°24'1 1.1
2017-Jul-17 12:29N 67°17' E 014°22'0 0.0
2017-Jul-17 11:59N 67°17' E 014°22'0 0.0
2017-Jul-17 11:29N 67°17' E 014°22'0 0.0
2017-Jul-17 10:59N 67°17' E 014°22'0 0.0
2017-Jul-17 10:29N 67°17' E 014°22'1 1.2
2017-Jul-17 10:01N 67°17' E 014°21'1428.3
2017-Jul-17 09:30N 67°11' E 013°48'510.0
2017-Jul-17 09:01N 67°07' E 013°57'5 9.0
2017-Jul-17 08:31N 67°10' E 014°04'1019.3
2017-Jul-17 08:00N 67°17' E 014°22'0 0.0
2017-Jul-17 07:30N 67°17' E 014°22'0 0.0
2017-Jul-17 07:00N 67°17' E 014°22'0 0.0
2017-Jul-17 06:30N 67°17' E 014°22'0 0.0
2017-Jul-17 06:00N 67°17' E 014°22'0 0.0
2017-Jul-17 05:30N 67°17' E 014°22'2 4.0
2017-Jul-17 05:00N 67°16' E 014°18'1121.5
2017-Jul-17 04:31N 67°07' E 014°01'713.1
2017-Jul-17 04:01N 67°10' E 013°46'1326.7
2017-Jul-17 03:30N 67°16' E 014°16'3 5.1
2017-Jul-17 03:00N 67°17' E 014°22'0 0.0
2017-Jul-17 02:30N 67°17' E 014°22'0 0.0
2017-Jul-17 02:00N 67°17' E 014°22'0 0.0
2017-Jul-17 01:30N 67°17' E 014°22'0 0.0
2017-Jul-17 01:00N 67°17' E 014°22'0 0.0
2017-Jul-17 00:30N 67°17' E 014°22'0 0.0
2017-Jul-17 00:00N 67°17' E 014°22'0 0.0
2017-Jul-16 23:30N 67°17' E 014°22'0 0.0
2017-Jul-16 23:00N 67°17' E 014°22'0 0.0
2017-Jul-16 22:30N 67°17' E 014°22'0 0.0
2017-Jul-16 22:00N 67°17' E 014°22'0 0.0
2017-Jul-16 21:30N 67°17' E 014°22'0 0.0
2017-Jul-16 21:00N 67°17' E 014°22'0 0.0
2017-Jul-16 20:30N 67°17' E 014°22'0 0.0
2017-Jul-16 20:00N 67°17' E 014°22'4 8.4
2017-Jul-16 19:30N 67°14' E 014°14'918.4
2017-Jul-16 19:01N 67°07' E 013°59'611.4
2017-Jul-16 18:31N 67°10' E 013°46'917.7
2017-Jul-16 18:00N 67°17' E 014°01'816.9
2017-Jul-16 17:30N 67°17' E 014°22'713.7
2017-Jul-16 17:00N 67°23' E 014°15'714.0
2017-Jul-16 16:30N 67°25' E 013°57'510.8
2017-Jul-16 16:00N 67°21' E 013°50'3 6.9
2017-Jul-16 15:30N 67°18' E 013°55'1121.3
2017-Jul-16 15:00N 67°17' E 014°22'0 0.0
2017-Jul-16 14:30N 67°17' E 014°22'0 0.0
2017-Jul-16 14:00N 67°17' E 014°22'0 0.0
2017-Jul-16 13:30N 67°17' E 014°22'0 0.0
2017-Jul-16 13:00N 67°17' E 014°22'0 0.0
2017-Jul-16 12:30N 67°17' E 014°22'0 0.0
2017-Jul-16 12:00N 67°17' E 014°22'0 0.0
2017-Jul-16 11:30N 67°17' E 014°22'0 0.0
2017-Jul-16 11:00N 67°17' E 014°22'0 0.0
2017-Jul-16 10:30N 67°17' E 014°22'0 0.0
2017-Jul-16 10:00N 67°17' E 014°22'0 0.0
2017-Jul-16 09:29N 67°17' E 014°22'0 0.0
2017-Jul-16 08:59N 67°17' E 014°22'0 0.0
2017-Jul-16 08:29N 67°17' E 014°22'0 0.0
2017-Jul-16 07:59N 67°17' E 014°22'0 0.0
2017-Jul-16 07:29N 67°17' E 014°22'0 0.0
2017-Jul-16 06:59N 67°17' E 014°22'0 0.0
2017-Jul-16 06:29N 67°17' E 014°22'0 0.0
2017-Jul-16 05:59N 67°17' E 014°22'0 0.0
2017-Jul-16 05:29N 67°17' E 014°22'0 0.0
2017-Jul-16 04:59N 67°17' E 014°22'0 0.0
2017-Jul-16 04:29N 67°17' E 014°22'0 0.0
2017-Jul-16 03:59N 67°17' E 014°22'0 0.0
2017-Jul-16 03:29N 67°17' E 014°22'0 0.0
2017-Jul-16 02:59N 67°17' E 014°22'0 0.0
2017-Jul-16 02:29N 67°17' E 014°22'0 0.0
2017-Jul-16 01:59N 67°17' E 014°22'0 0.0
2017-Jul-16 01:29N 67°17' E 014°22'0 0.0
2017-Jul-16 00:59N 67°17' E 014°22'0 0.0
2017-Jul-16 00:29N 67°17' E 014°22'0 0.0
2017-Jul-15 23:59N 67°17' E 014°22'0 0.0
2017-Jul-15 23:29N 67°17' E 014°22'0 0.0
2017-Jul-15 22:59N 67°17' E 014°22'0 0.0
2017-Jul-15 22:29N 67°17' E 014°22'0 0.0
2017-Jul-15 21:59N 67°17' E 014°22'0 0.0
2017-Jul-15 21:29N 67°17' E 014°22'0 0.0
2017-Jul-15 20:59N 67°17' E 014°22'0 0.0
2017-Jul-15 20:29N 67°17' E 014°22'0 0.0
2017-Jul-15 19:59N 67°17' E 014°22'0 0.0
2017-Jul-15 19:29N 67°17' E 014°22'0 0.0
2017-Jul-15 18:59N 67°17' E 014°22'0 0.0
2017-Jul-15 18:29N 67°17' E 014°22'0 0.0
2017-Jul-15 17:59N 67°17' E 014°22'0 0.0
2017-Jul-15 17:29N 67°17' E 014°22'0 0.0
2017-Jul-15 16:59N 67°17' E 014°22'612.9
2017-Jul-15 16:31N 67°22' E 014°12'713.5
2017-Jul-15 16:00N 67°25' E 013°57'714.1
2017-Jul-15 15:30N 67°23' E 014°15'714.2
2017-Jul-15 15:01N 67°17' E 014°22'1515.5
2017-Jul-15 14:00N 67°10' E 013°46'713.5
2017-Jul-15 13:30N 67°07' E 014°02'1121.0
2017-Jul-15 13:01N 67°16' E 014°18'2 3.8
2017-Jul-15 12:30N 67°17' E 014°22'0 0.0
2017-Jul-15 12:00N 67°17' E 014°22'0 0.0
2017-Jul-15 11:30N 67°17' E 014°22'0 0.0
2017-Jul-15 11:00N 67°17' E 014°22'0 0.0
2017-Jul-15 10:31N 67°17' E 014°22'0 0.3
2017-Jul-15 10:00N 67°17' E 014°23'713.9
2017-Jul-15 09:31N 67°23' E 014°15'816.0
2017-Jul-15 09:00N 67°24' E 013°54'4 8.5
2017-Jul-15 08:30N 67°21' E 013°48'612.1
2017-Jul-15 08:01N 67°15' E 013°53'917.3
2017-Jul-15 07:31N 67°17' E 014°15'2 3.1
2017-Jul-15 07:01N 67°15' E 014°16'918.8
2017-Jul-15 06:31N 67°07' E 014°02'4 7.3
2017-Jul-15 06:01N 67°11' E 014°05'918.1
2017-Jul-15 05:30N 67°17' E 014°22'0 0.0
2017-Jul-15 04:59N 67°17' E 014°22'0 0.0
2017-Jul-15 04:29N 67°17' E 014°22'0 0.0
2017-Jul-15 03:59N 67°17' E 014°22'0 0.0
2017-Jul-15 03:29N 67°17' E 014°22'0 0.0
2017-Jul-15 02:59N 67°17' E 014°22'0 0.0
2017-Jul-15 02:29N 67°17' E 014°22'0 0.0
2017-Jul-15 01:59N 67°17' E 014°22'0 0.0
2017-Jul-15 01:29N 67°17' E 014°22'0 0.0
2017-Jul-15 00:59N 67°17' E 014°22'0 0.0
2017-Jul-15 00:29N 67°17' E 014°22'0 0.0
2017-Jul-14 23:59N 67°17' E 014°22'0 0.0
2017-Jul-14 23:28N 67°17' E 014°22'0 0.0
2017-Jul-14 22:58N 67°17' E 014°22'0 0.0
2017-Jul-14 22:28N 67°17' E 014°22'0 0.0
2017-Jul-14 21:58N 67°17' E 014°22'0 0.0
2017-Jul-14 21:28N 67°17' E 014°22'0 0.0
2017-Jul-14 20:58N 67°17' E 014°22'0 0.0
2017-Jul-14 20:28N 67°17' E 014°22'0 0.0
2017-Jul-14 19:58N 67°17' E 014°22'0 0.0
2017-Jul-14 19:28N 67°17' E 014°22'0 0.0
2017-Jul-14 18:58N 67°17' E 014°22'0 0.0
2017-Jul-14 18:28N 67°17' E 014°22'0 0.0
2017-Jul-14 17:58N 67°17' E 014°22'0 0.0
2017-Jul-14 17:28N 67°17' E 014°22'0 0.0
2017-Jul-14 16:58N 67°17' E 014°22'0 0.0
2017-Jul-14 16:31N 67°17' E 014°22'816.5
2017-Jul-14 16:01N 67°17' E 014°01'713.9
2017-Jul-14 15:30N 67°18' E 013°43'714.6
2017-Jul-14 15:00N 67°24' E 013°54'815.5
2017-Jul-14 14:31N 67°24' E 014°14'714.7
2017-Jul-14 14:00N 67°17' E 014°22'1 1.3
2017-Jul-14 13:31N 67°17' E 014°24'1 2.0
2017-Jul-14 13:01N 67°18' E 014°22'1019.6
2017-Jul-14 12:28N 67°25' E 014°01'3 5.8
2017-Jul-14 11:59N 67°24' E 013°54'715.4
2017-Jul-14 11:31N 67°24' E 014°13'815.1
2017-Jul-14 11:00N 67°17' E 014°22'1 1.3
2017-Jul-14 10:30N 67°17' E 014°24'0 0.9
2017-Jul-14 10:00N 67°17' E 014°23'0 0.5
2017-Jul-14 09:30N 67°17' E 014°22'0 0.0
2017-Jul-14 09:00N 67°17' E 014°22'0 0.0
2017-Jul-14 08:30N 67°17' E 014°22'  
Track history (hours):
 
Tides and Currents Weather Stations Pressure Air Temp Water Temp Dewpoint Dewpoint Depression Visibility Wind Speed Wind Dir Waves Ship Positions

Fjordprinsessen

Last reported at 2017-Jul-24 08:29 UTC. Time now 2017-Jul-24 08:41 UTC.
Position N 67°17' E 014°22'.

Length 30 m.

Type: High speed craft. MMSI: 259604000.

Date/timePositionNaut miles runAvg speedWind from/ knotsBaromVisibWave heightAir tempDewpointWater temp
2017-Jul-24 08:29N 67°17' E 014°22'2 4.6
2017-Jul-24 08:01N 67°17' E 014°17'1019.6
2017-Jul-24 07:31N 67°16' E 013°51'714.2
2017-Jul-24 07:01N 67°23' E 013°51'4 8.7
2017-Jul-24 06:30N 67°25' E 014°01'713.9
2017-Jul-24 06:01N 67°21' E 014°15'510.1
2017-Jul-24 05:30N 67°17' E 014°22'0 0.3
2017-Jul-24 05:01N 67°17' E 014°22'1018.8
2017-Jul-24 04:30N 67°25' E 014°07'5 9.2
2017-Jul-24 03:58N 67°24' E 013°54'0 0.0
2017-Jul-24 03:28N 67°24' E 013°54'0 0.0
2017-Jul-24 02:58N 67°24' E 013°54'0 0.0
2017-Jul-24 02:28N 67°24' E 013°54'0 0.0
2017-Jul-24 01:58N 67°24' E 013°54'0 0.0
2017-Jul-24 01:28N 67°24' E 013°54'0 0.0
2017-Jul-24 00:58N 67°24' E 013°54'0 0.0
2017-Jul-24 00:28N 67°24' E 013°54'0 0.0
2017-Jul-23 23:58N 67°24' E 013°54'0 0.0
2017-Jul-23 23:28N 67°24' E 013°54'0 0.0
2017-Jul-23 22:58N 67°24' E 013°54'0 0.0
2017-Jul-23 22:28N 67°24' E 013°54'0 0.0
2017-Jul-23 21:58N 67°24' E 013°54'0 0.0
2017-Jul-23 21:28N 67°24' E 013°54'0 0.0
2017-Jul-23 20:58N 67°24' E 013°54'0 0.0
2017-Jul-23 20:28N 67°24' E 013°54'0 0.0
2017-Jul-23 19:58N 67°24' E 013°54'2 4.9
2017-Jul-23 19:30N 67°26' E 013°59'1224.9
2017-Jul-23 19:01N 67°17' E 014°22'0 0.3
2017-Jul-23 18:30N 67°17' E 014°22'1020.8
2017-Jul-23 18:01N 67°10' E 014°03'918.3
2017-Jul-23 17:30N 67°03' E 013°47'1121.9
2017-Jul-23 17:00N 66°56' E 013°26'815.5
2017-Jul-23 16:30N 66°50' E 013°41'1121.1
2017-Jul-23 16:00N 66°48' E 013°14'714.2
2017-Jul-23 15:30N 66°41' E 013°14'815.8
2017-Jul-23 15:00N 66°36' E 012°59'815.2
2017-Jul-23 14:30N 66°28' E 012°57'917.8
2017-Jul-23 14:00N 66°19' E 012°53'918.6
2017-Jul-23 13:30N 66°10' E 012°58'1121.4
2017-Jul-23 13:00N 66°05' E 012°35'4 7.3
2017-Jul-23 12:29N 66°01' E 012°38'0 0.0
2017-Jul-23 11:56N 66°01' E 012°38'0 0.0
2017-Jul-23 11:29N 66°01' E 012°38'0 0.0
2017-Jul-23 10:59N 66°01' E 012°38'0 0.0
2017-Jul-23 10:29N 66°01' E 012°38'0 0.0
2017-Jul-23 09:59N 66°01' E 012°38'0 0.0
2017-Jul-23 09:29N 66°01' E 012°38'0 0.0
2017-Jul-23 08:56N 66°01' E 012°38'0 0.0
2017-Jul-23 08:29N 66°01' E 012°38'0 0.0
2017-Jul-23 07:59N 66°01' E 012°38'0 0.0
2017-Jul-23 07:29N 66°01' E 012°38'0 0.0
2017-Jul-23 06:53N 66°01' E 012°38'0 0.0
2017-Jul-23 06:29N 66°01' E 012°38'0 0.0
2017-Jul-23 05:56N 66°01' E 012°38'0 0.0
2017-Jul-23 05:29N 66°01' E 012°38'0 0.0
2017-Jul-23 04:59N 66°01' E 012°38'0 0.0
2017-Jul-23 04:29N 66°01' E 012°38'0 0.0
2017-Jul-23 03:59N 66°01' E 012°38'0 0.0
2017-Jul-23 03:29N 66°01' E 012°38'0 0.0
2017-Jul-23 02:59N 66°01' E 012°38'0 0.0
2017-Jul-23 02:29N 66°01' E 012°38'0 0.0
2017-Jul-23 01:59N 66°01' E 012°38'0 0.0
2017-Jul-23 01:29N 66°01' E 012°38'0 0.0
2017-Jul-23 00:59N 66°01' E 012°38'0 0.0
2017-Jul-23 00:29N 66°01' E 012°38'0 0.0
2017-Jul-22 23:59N 66°01' E 012°38'0 0.0
2017-Jul-22 23:29N 66°01' E 012°38'0 0.0
2017-Jul-22 22:59N 66°01' E 012°38'0 0.0
2017-Jul-22 22:29N 66°01' E 012°38'0 0.0
2017-Jul-22 21:59N 66°01' E 012°38'0 0.0
2017-Jul-22 21:29N 66°01' E 012°38'0 0.0
2017-Jul-22 20:59N 66°01' E 012°38'0 0.0
2017-Jul-22 20:29N 66°01' E 012°38'0 0.0
2017-Jul-22 20:00N 66°01' E 012°38'510.7
2017-Jul-22 19:30N 66°06' E 012°43'919.0
2017-Jul-22 19:00N 66°14' E 012°55'916.9
2017-Jul-22 18:30N 66°22' E 012°49'815.5
2017-Jul-22 18:00N 66°29' E 012°58'815.1
2017-Jul-22 17:30N 66°37' E 012°60'714.6
2017-Jul-22 17:00N 66°40' E 013°15'816.2
2017-Jul-22 16:30N 66°48' E 013°14'1120.9
2017-Jul-22 16:00N 66°51' E 013°41'815.5
2017-Jul-22 15:30N 66°56' E 013°26'1122.1
2017-Jul-22 15:00N 67°03' E 013°47'2019.8
2017-Jul-22 14:00N 67°17' E 014°22'0 0.0
2017-Jul-22 13:30N 67°17' E 014°22'0 0.0
2017-Jul-22 13:00N 67°17' E 014°22'0 0.0
2017-Jul-22 12:30N 67°17' E 014°22'0 0.0
2017-Jul-22 12:00N 67°17' E 014°22'0 0.0
2017-Jul-22 11:30N 67°17' E 014°22'0 0.0
2017-Jul-22 11:00N 67°17' E 014°22'0 0.0
2017-Jul-22 10:30N 67°17' E 014°22'0 0.0
2017-Jul-22 10:00N 67°17' E 014°22'0 0.0
2017-Jul-22 09:30N 67°17' E 014°22'0 0.0
2017-Jul-22 09:00N 67°17' E 014°22'0 0.0
2017-Jul-22 08:30N 67°17' E 014°22'0 0.0
2017-Jul-22 08:00N 67°17' E 014°22'0 0.8
2017-Jul-22 07:30N 67°17' E 014°23'612.2
2017-Jul-22 07:01N 67°13' E 014°11'714.5
2017-Jul-22 06:31N 67°08' E 013°58'510.0
2017-Jul-22 06:01N 67°10' E 013°47'1427.9
2017-Jul-22 05:31N 67°17' E 014°19'1 2.7
2017-Jul-22 05:00N 67°17' E 014°22'0 0.0
2017-Jul-22 04:30N 67°17' E 014°22'0 0.0
2017-Jul-22 04:00N 67°17' E 014°22'0 0.0
2017-Jul-22 03:30N 67°17' E 014°22'0 0.0
2017-Jul-22 02:59N 67°17' E 014°22'0 0.0
2017-Jul-22 02:29N 67°17' E 014°22'0 0.0
2017-Jul-22 01:59N 67°17' E 014°22'0 0.0
2017-Jul-22 01:29N 67°17' E 014°22'0 0.0
2017-Jul-22 00:59N 67°17' E 014°22'0 0.0
2017-Jul-22 00:29N 67°17' E 014°22'0 0.0
2017-Jul-21 23:59N 67°17' E 014°22'0 0.0
2017-Jul-21 23:29N 67°17' E 014°22'0 0.0
2017-Jul-21 22:59N 67°17' E 014°22'0 0.0
2017-Jul-21 22:29N 67°17' E 014°22'0 0.0
2017-Jul-21 21:59N 67°17' E 014°22'0 0.0
2017-Jul-21 21:29N 67°17' E 014°22'0 0.0
2017-Jul-21 20:59N 67°17' E 014°22'0 0.0
2017-Jul-21 20:29N 67°17' E 014°22'0 0.0
2017-Jul-21 19:59N 67°17' E 014°22'0 0.0
2017-Jul-21 19:29N 67°17' E 014°22'0 0.0
2017-Jul-21 18:59N 67°17' E 014°22'0 0.0
2017-Jul-21 18:29N 67°17' E 014°22'0 0.0
2017-Jul-21 17:59N 67°17' E 014°22'0 0.0
2017-Jul-21 17:29N 67°17' E 014°22'0 0.0
2017-Jul-21 16:59N 67°17' E 014°22'0 0.0
2017-Jul-21 16:30N 67°17' E 014°22'713.5
2017-Jul-21 16:00N 67°23' E 014°13'1224.6
2017-Jul-21 15:30N 67°18' E 013°43'714.3
2017-Jul-21 15:00N 67°24' E 013°54'612.3
2017-Jul-21 14:31N 67°24' E 014°10'917.7
2017-Jul-21 14:01N 67°17' E 014°22'0 0.0
2017-Jul-21 13:30N 67°17' E 014°22'0 0.0
2017-Jul-21 13:00N 67°17' E 014°22'713.5
2017-Jul-21 12:31N 67°23' E 014°13'714.4
2017-Jul-21 12:00N 67°24' E 013°54'714.2
2017-Jul-21 11:30N 67°24' E 014°12'816.0
2017-Jul-21 11:00N 67°17' E 014°22'0 0.2
2017-Jul-21 10:30N 67°17' E 014°22'0 0.8
2017-Jul-21 10:00N 67°17' E 014°23'0 0.8
2017-Jul-21 09:30N 67°17' E 014°22'0 0.0
2017-Jul-21 09:00N 67°17' E 014°22'0 0.0
2017-Jul-21 08:30N 67°17' E 014°22'0 0.0
2017-Jul-21 08:00N 67°17' E 014°22'0 0.0
2017-Jul-21 07:30N 67°17' E 014°22'0 0.0
2017-Jul-21 07:00N 67°17' E 014°22'0 0.0
2017-Jul-21 06:30N 67°17' E 014°22'0 0.0
2017-Jul-21 06:00N 67°17' E 014°22'0 0.0
2017-Jul-21 05:30N 67°17' E 014°22'1 2.9
2017-Jul-21 05:01N 67°16' E 014°19'1121.8
2017-Jul-21 04:30N 67°07' E 014°03'3 6.0
2017-Jul-21 04:00N 67°10' E 014°03'1019.4
2017-Jul-21 03:30N 67°17' E 014°22'0 0.0
2017-Jul-21 03:00N 67°17' E 014°22'0 0.0
2017-Jul-21 02:30N 67°17' E 014°22'0 0.0
2017-Jul-21 02:00N 67°17' E 014°22'0 0.0
2017-Jul-21 01:30N 67°17' E 014°22'0 0.0
2017-Jul-21 01:00N 67°17' E 014°22'0 0.0
2017-Jul-21 00:30N 67°17' E 014°22'0 0.0
2017-Jul-21 00:00N 67°17' E 014°22'0 0.0
2017-Jul-20 23:30N 67°17' E 014°22'0 0.0
2017-Jul-20 23:00N 67°17' E 014°22'0 0.0
2017-Jul-20 22:30N 67°17' E 014°22'0 0.0
2017-Jul-20 22:00N 67°17' E 014°22'0 0.0
2017-Jul-20 21:30N 67°17' E 014°22'0 0.0
2017-Jul-20 21:00N 67°17' E 014°22'0 0.0
2017-Jul-20 20:30N 67°17' E 014°22'714.7
2017-Jul-20 20:00N 67°17' E 014°04'918.8
2017-Jul-20 19:30N 67°10' E 013°46'510.2
2017-Jul-20 19:00N 67°08' E 013°58'1 2.9
2017-Jul-20 18:31N 67°08' E 014°02'1224.7
2017-Jul-20 18:01N 67°17' E 014°22'0 0.0
2017-Jul-20 17:30N 67°17' E 014°22'0 0.9
2017-Jul-20 17:00N 67°17' E 014°23'0 0.9
2017-Jul-20 16:30N 67°17' E 014°22'714.1
2017-Jul-20 16:01N 67°23' E 014°15'1325.1
2017-Jul-20 15:31N 67°19' E 013°45'713.7
2017-Jul-20 15:00N 67°24' E 013°54'1313.2
2017-Jul-20 14:01N 67°17' E 014°22'0 0.1
2017-Jul-20 13:30N 67°17' E 014°22'714.0
2017-Jul-20 13:00N 67°23' E 014°15'815.7
2017-Jul-20 12:30N 67°24' E 013°54'611.7
2017-Jul-20 12:00N 67°25' E 014°09'4 7.4
2017-Jul-20 11:31N 67°21' E 014°14'510.8
2017-Jul-20 11:00N 67°17' E 014°24'0 0.7
2017-Jul-20 10:30N 67°17' E 014°23'611.8
2017-Jul-20 10:01N 67°17' E 014°08'1019.3
2017-Jul-20 09:31N 67°11' E 013°49'4 8.0
2017-Jul-20 09:00N 67°07' E 013°54'4 7.9
2017-Jul-20 08:31N 67°09' E 014°03'1121.4
2017-Jul-20 08:01N 67°17' E 014°22'0 0.0
2017-Jul-20 07:30N 67°17' E 014°22'0 0.0
2017-Jul-20 07:00N 67°17' E 014°22'0 0.0
2017-Jul-20 06:30N 67°17' E 014°22'0 0.0
2017-Jul-20 06:00N 67°17' E 014°22'0 0.0
2017-Jul-20 05:30N 67°17' E 014°22'1 1.3
2017-Jul-20 05:01N 67°17' E 014°21'1223.5
2017-Jul-20 04:31N 67°07' E 014°03'3 6.2
2017-Jul-20 04:01N 67°10' E 014°04'1019.3
2017-Jul-20 03:30N 67°17' E 014°22'0 0.0
2017-Jul-20 02:58N 67°17' E 014°22'0 0.0
2017-Jul-20 02:28N 67°17' E 014°22'0 0.0
2017-Jul-20 01:58N 67°17' E 014°22'0 0.0
2017-Jul-20 01:28N 67°17' E 014°22'0 0.0
2017-Jul-20 00:58N 67°17' E 014°22'0 0.0
2017-Jul-20 00:28N 67°17' E 014°22'0 0.0
2017-Jul-19 23:58N 67°17' E 014°22'0 0.0
2017-Jul-19 23:28N 67°17' E 014°22'0 0.0
2017-Jul-19 22:58N 67°17' E 014°22'0 0.0
2017-Jul-19 22:28N 67°17' E 014°22'0 0.0
2017-Jul-19 21:58N 67°17' E 014°22'0 0.0
2017-Jul-19 21:28N 67°17' E 014°22'0 0.0
2017-Jul-19 20:58N 67°17' E 014°22'0 0.0
2017-Jul-19 20:28N 67°17' E 014°22'0 0.0
2017-Jul-19 19:58N 67°17' E 014°22'1023.2
2017-Jul-19 19:31N 67°13' E 013°58'611.1
2017-Jul-19 19:01N 67°08' E 013°50'5 9.6
2017-Jul-19 18:31N 67°08' E 014°02'1224.2
2017-Jul-19 18:00N 67°17' E 014°22'0 0.1
2017-Jul-19 17:30N 67°17' E 014°22'0 0.0
2017-Jul-19 17:00N 67°17' E 014°22'1 1.4
2017-Jul-19 16:31N 67°17' E 014°24'917.0
2017-Jul-19 16:01N 67°17' E 014°02'917.7
2017-Jul-19 15:30N 67°10' E 013°46'4 7.2
2017-Jul-19 15:00N 67°08' E 013°53'4 7.0
2017-Jul-19 14:31N 67°07' E 014°02'1224.8
2017-Jul-19 14:01N 67°17' E 014°22'0 0.1
2017-Jul-19 13:30N 67°17' E 014°22'0 0.7
2017-Jul-19 13:00N 67°17' E 014°23'0 0.7
2017-Jul-19 12:28N 67°17' E 014°22'0 0.0
2017-Jul-19 11:58N 67°17' E 014°22'0 0.0
2017-Jul-19 11:31N 67°17' E 014°22'0 0.0
2017-Jul-19 11:01N 67°17' E 014°22'0 0.0
2017-Jul-19 10:31N 67°17' E 014°22'0 0.0
2017-Jul-19 10:00N 67°17' E 014°22'0 0.0
2017-Jul-19 09:30N 67°17' E 014°22'0 0.0
2017-Jul-19 09:00N 67°17' E 014°22'0 0.0
2017-Jul-19 08:30N 67°17' E 014°22'0 0.0
2017-Jul-19 08:00N 67°17' E 014°22'0 0.0
2017-Jul-19 07:30N 67°17' E 014°22'0 0.0
2017-Jul-19 07:00N 67°17' E 014°22'0 0.0
2017-Jul-19 06:30N 67°17' E 014°22'0 0.0
2017-Jul-19 06:00N 67°17' E 014°22'0 0.0
2017-Jul-19 05:30N 67°17' E 014°22'1 1.2
2017-Jul-19 05:00N 67°17' E 014°21'1222.5
2017-Jul-19 04:29N 67°07' E 014°03'3 6.8
2017-Jul-19 04:00N 67°11' E 014°05'917.9
2017-Jul-19 03:29N 67°17' E 014°22'0 0.0
2017-Jul-19 02:59N 67°17' E 014°22'0 0.0
2017-Jul-19 02:29N 67°17' E 014°22'0 0.0
2017-Jul-19 01:59N 67°17' E 014°22'0 0.0
2017-Jul-19 01:29N 67°17' E 014°22'0 0.0
2017-Jul-19 00:59N 67°17' E 014°22'0 0.0
2017-Jul-19 00:29N 67°17' E 014°22'0 0.0
2017-Jul-18 23:58N 67°17' E 014°22'0 0.0
2017-Jul-18 23:28N 67°17' E 014°22'0 0.0
2017-Jul-18 22:58N 67°17' E 014°22'0 0.0
2017-Jul-18 22:28N 67°17' E 014°22'0 0.0
2017-Jul-18 21:58N 67°17' E 014°22'0 0.0
2017-Jul-18 21:28N 67°17' E 014°22'0 0.0
2017-Jul-18 20:58N 67°17' E 014°22'0 0.0
2017-Jul-18 20:28N 67°17' E 014°22'0 0.0
2017-Jul-18 19:58N 67°17' E 014°22'0 0.0
2017-Jul-18 19:28N 67°17' E 014°22'0 0.0
2017-Jul-18 18:58N 67°17' E 014°22'0 0.0
2017-Jul-18 18:28N 67°17' E 014°22'0 0.0
2017-Jul-18 17:58N 67°17' E 014°22'0 0.0
2017-Jul-18 17:28N 67°17' E 014°22'0 0.4
2017-Jul-18 17:00N 67°17' E 014°23'1 2.7
2017-Jul-18 16:31N 67°18' E 014°22'815.6
2017-Jul-18 16:01N 67°21' E 014°02'510.1
2017-Jul-18 15:31N 67°22' E 013°50'4 8.8
2017-Jul-18 15:00N 67°25' E 013°57'1312.8
2017-Jul-18 14:00N 67°17' E 014°22'0 0.0
2017-Jul-18 13:30N 67°17' E 014°22'0 0.0
2017-Jul-18 13:00N 67°17' E 014°22'0 0.0
2017-Jul-18 12:30N 67°17' E 014°22'0 0.0
2017-Jul-18 12:00N 67°17' E 014°22'0 0.0
2017-Jul-18 11:30N 67°17' E 014°22'0 0.0
2017-Jul-18 11:00N 67°17' E 014°22'0 0.0
2017-Jul-18 10:30N 67°17' E 014°22'0 0.0
2017-Jul-18 10:00N 67°17' E 014°22'0 0.0
2017-Jul-18 09:30N 67°17' E 014°22'0 0.0
2017-Jul-18 09:00N 67°17' E 014°22'0 0.0
2017-Jul-18 08:30N 67°17' E 014°22'0 0.0
2017-Jul-18 08:01N 67°17' E 014°22'1 1.0
2017-Jul-18 07:31N 67°18' E 014°22'1019.3
2017-Jul-18 07:01N 67°25' E 014°06'4 8.8
2017-Jul-18 06:30N 67°24' E 013°54'816.6
2017-Jul-18 06:01N 67°21' E 014°14'510.8
2017-Jul-18 05:30N 67°17' E 014°22'1 1.4
2017-Jul-18 05:01N 67°17' E 014°21'1223.4
2017-Jul-18 04:30N 67°07' E 014°03'4 7.4
2017-Jul-18 04:00N 67°11' E 014°06'917.8
2017-Jul-18 03:30N 67°17' E 014°22'0 0.0
2017-Jul-18 02:58N 67°17' E 014°22'0 0.0
2017-Jul-18 02:28N 67°17' E 014°22'0 0.0
2017-Jul-18 01:58N 67°17' E 014°22'0 0.0
2017-Jul-18 01:28N 67°17' E 014°22'0 0.0
2017-Jul-18 00:58N 67°17' E 014°22'0 0.0
2017-Jul-18 00:28N 67°17' E 014°22'0 0.0
2017-Jul-17 23:58N 67°17' E 014°22'0 0.0
2017-Jul-17 23:28N 67°17' E 014°22'0 0.0
2017-Jul-17 22:58N 67°17' E 014°22'0 0.0
2017-Jul-17 22:28N 67°17' E 014°22'0 0.0
2017-Jul-17 21:58N 67°17' E 014°22'0 0.0
2017-Jul-17 21:31N 67°17' E 014°22'0 0.0
2017-Jul-17 21:01N 67°17' E 014°22'0 0.0
2017-Jul-17 20:31N 67°17' E 014°22'0 0.0
2017-Jul-17 20:00N 67°17' E 014°22'0 0.0
2017-Jul-17 19:30N 67°17' E 014°22'0 0.0
2017-Jul-17 19:00N 67°17' E 014°22'0 0.0
2017-Jul-17 18:30N 67°17' E 014°22'0 0.0
2017-Jul-17 18:00N 67°17' E 014°22'0 0.0
2017-Jul-17 17:30N 67°17' E 014°22'0 0.0
2017-Jul-17 17:00N 67°17' E 014°22'0 0.0
2017-Jul-17 16:30N 67°17' E 014°22'816.5
2017-Jul-17 16:00N 67°17' E 014°01'817.3
2017-Jul-17 15:30N 67°10' E 013°46'5 9.8
2017-Jul-17 15:00N 67°07' E 013°55'3 6.0
2017-Jul-17 14:31N 67°08' E 014°02'1223.5
2017-Jul-17 14:00N 67°17' E 014°22'1 1.3
2017-Jul-17 13:30N 67°17' E 014°24'0 0.2
2017-Jul-17 13:01N 67°17' E 014°24'1 1.1
2017-Jul-17 12:29N 67°17' E 014°22'0 0.0
2017-Jul-17 11:59N 67°17' E 014°22'0 0.0
2017-Jul-17 11:29N 67°17' E 014°22'0 0.0
2017-Jul-17 10:59N 67°17' E 014°22'0 0.0
2017-Jul-17 10:29N 67°17' E 014°22'1 1.2
2017-Jul-17 10:01N 67°17' E 014°21'1428.3
2017-Jul-17 09:30N 67°11' E 013°48'510.0
2017-Jul-17 09:01N 67°07' E 013°57'5 9.0
2017-Jul-17 08:31N 67°10' E 014°04'1019.3
2017-Jul-17 08:00N 67°17' E 014°22'0 0.0
2017-Jul-17 07:30N 67°17' E 014°22'0 0.0
2017-Jul-17 07:00N 67°17' E 014°22'0 0.0
2017-Jul-17 06:30N 67°17' E 014°22'0 0.0
2017-Jul-17 06:00N 67°17' E 014°22'0 0.0
2017-Jul-17 05:30N 67°17' E 014°22'2 4.0
2017-Jul-17 05:00N 67°16' E 014°18'1121.5
2017-Jul-17 04:31N 67°07' E 014°01'713.1
2017-Jul-17 04:01N 67°10' E 013°46'1326.7
2017-Jul-17 03:30N 67°16' E 014°16'3 5.1
2017-Jul-17 03:00N 67°17' E 014°22'0 0.0
2017-Jul-17 02:30N 67°17' E 014°22'0 0.0
2017-Jul-17 02:00N 67°17' E 014°22'0 0.0
2017-Jul-17 01:30N 67°17' E 014°22'0 0.0
2017-Jul-17 01:00N 67°17' E 014°22'0 0.0
2017-Jul-17 00:30N 67°17' E 014°22'0 0.0
2017-Jul-17 00:00N 67°17' E 014°22'0 0.0
2017-Jul-16 23:30N 67°17' E 014°22'0 0.0
2017-Jul-16 23:00N 67°17' E 014°22'0 0.0
2017-Jul-16 22:30N 67°17' E 014°22'0 0.0
2017-Jul-16 22:00N 67°17' E 014°22'0 0.0
2017-Jul-16 21:30N 67°17' E 014°22'0 0.0
2017-Jul-16 21:00N 67°17' E 014°22'0 0.0
2017-Jul-16 20:30N 67°17' E 014°22'0 0.0
2017-Jul-16 20:00N 67°17' E 014°22'4 8.4
2017-Jul-16 19:30N 67°14' E 014°14'918.4
2017-Jul-16 19:01N 67°07' E 013°59'611.4
2017-Jul-16 18:31N 67°10' E 013°46'917.7
2017-Jul-16 18:00N 67°17' E 014°01'816.9
2017-Jul-16 17:30N 67°17' E 014°22'713.7
2017-Jul-16 17:00N 67°23' E 014°15'714.0
2017-Jul-16 16:30N 67°25' E 013°57'510.8
2017-Jul-16 16:00N 67°21' E 013°50'3 6.9
2017-Jul-16 15:30N 67°18' E 013°55'1121.3
2017-Jul-16 15:00N 67°17' E 014°22'0 0.0
2017-Jul-16 14:30N 67°17' E 014°22'0 0.0
2017-Jul-16 14:00N 67°17' E 014°22'0 0.0
2017-Jul-16 13:30N 67°17' E 014°22'0 0.0
2017-Jul-16 13:00N 67°17' E 014°22'0 0.0
2017-Jul-16 12:30N 67°17' E 014°22'0 0.0
2017-Jul-16 12:00N 67°17' E 014°22'0 0.0
2017-Jul-16 11:30N 67°17' E 014°22'0 0.0
2017-Jul-16 11:00N 67°17' E 014°22'0 0.0
2017-Jul-16 10:30N 67°17' E 014°22'0 0.0
2017-Jul-16 10:00N 67°17' E 014°22'0 0.0
2017-Jul-16 09:29N 67°17' E 014°22'0 0.0
2017-Jul-16 08:59N 67°17' E 014°22'0 0.0
2017-Jul-16 08:29N 67°17' E 014°22'0 0.0
2017-Jul-16 07:59N 67°17' E 014°22'0 0.0
2017-Jul-16 07:29N 67°17' E 014°22'0 0.0
2017-Jul-16 06:59N 67°17' E 014°22'0 0.0
2017-Jul-16 06:29N 67°17' E 014°22'0 0.0
2017-Jul-16 05:59N 67°17' E 014°22'0 0.0
2017-Jul-16 05:29N 67°17' E 014°22'0 0.0
2017-Jul-16 04:59N 67°17' E 014°22'0 0.0
2017-Jul-16 04:29N 67°17' E 014°22'0 0.0
2017-Jul-16 03:59N 67°17' E 014°22'0 0.0
2017-Jul-16 03:29N 67°17' E 014°22'0 0.0
2017-Jul-16 02:59N 67°17' E 014°22'0 0.0
2017-Jul-16 02:29N 67°17' E 014°22'0 0.0
2017-Jul-16 01:59N 67°17' E 014°22'0 0.0
2017-Jul-16 01:29N 67°17' E 014°22'0 0.0
2017-Jul-16 00:59N 67°17' E 014°22'0 0.0
2017-Jul-16 00:29N 67°17' E 014°22'0 0.0
2017-Jul-15 23:59N 67°17' E 014°22'0 0.0
2017-Jul-15 23:29N 67°17' E 014°22'0 0.0
2017-Jul-15 22:59N 67°17' E 014°22'0 0.0
2017-Jul-15 22:29N 67°17' E 014°22'0 0.0
2017-Jul-15 21:59N 67°17' E 014°22'0 0.0
2017-Jul-15 21:29N 67°17' E 014°22'0 0.0
2017-Jul-15 20:59N 67°17' E 014°22'0 0.0
2017-Jul-15 20:29N 67°17' E 014°22'0 0.0
2017-Jul-15 19:59N 67°17' E 014°22'0 0.0
2017-Jul-15 19:29N 67°17' E 014°22'0 0.0
2017-Jul-15 18:59N 67°17' E 014°22'0 0.0
2017-Jul-15 18:29N 67°17' E 014°22'0 0.0
2017-Jul-15 17:59N 67°17' E 014°22'0 0.0
2017-Jul-15 17:29N 67°17' E 014°22'0 0.0
2017-Jul-15 16:59N 67°17' E 014°22'612.9
2017-Jul-15 16:31N 67°22' E 014°12'713.5
2017-Jul-15 16:00N 67°25' E 013°57'714.1
2017-Jul-15 15:30N 67°23' E 014°15'714.2
2017-Jul-15 15:01N 67°17' E 014°22'1515.5
2017-Jul-15 14:00N 67°10' E 013°46'713.5
2017-Jul-15 13:30N 67°07' E 014°02'1121.0
2017-Jul-15 13:01N 67°16' E 014°18'2 3.8
2017-Jul-15 12:30N 67°17' E 014°22'0 0.0
2017-Jul-15 12:00N 67°17' E 014°22'0 0.0
2017-Jul-15 11:30N 67°17' E 014°22'0 0.0
2017-Jul-15 11:00N 67°17' E 014°22'0 0.0
2017-Jul-15 10:31N 67°17' E 014°22'0 0.3
2017-Jul-15 10:00N 67°17' E 014°23'713.9
2017-Jul-15 09:31N 67°23' E 014°15'816.0
2017-Jul-15 09:00N 67°24' E 013°54'4 8.5
2017-Jul-15 08:30N 67°21' E 013°48'612.1
2017-Jul-15 08:01N 67°15' E 013°53'917.3
2017-Jul-15 07:31N 67°17' E 014°15'2 3.1
2017-Jul-15 07:01N 67°15' E 014°16'918.8
2017-Jul-15 06:31N 67°07' E 014°02'4 7.3
2017-Jul-15 06:01N 67°11' E 014°05'918.1
2017-Jul-15 05:30N 67°17' E 014°22'0 0.0
2017-Jul-15 04:59N 67°17' E 014°22'0 0.0
2017-Jul-15 04:29N 67°17' E 014°22'0 0.0
2017-Jul-15 03:59N 67°17' E 014°22'0 0.0
2017-Jul-15 03:29N 67°17' E 014°22'0 0.0
2017-Jul-15 02:59N 67°17' E 014°22'0 0.0
2017-Jul-15 02:29N 67°17' E 014°22'0 0.0
2017-Jul-15 01:59N 67°17' E 014°22'0 0.0
2017-Jul-15 01:29N 67°17' E 014°22'0 0.0
2017-Jul-15 00:59N 67°17' E 014°22'0 0.0
2017-Jul-15 00:29N 67°17' E 014°22'0 0.0
2017-Jul-14 23:59N 67°17' E 014°22'0 0.0
2017-Jul-14 23:28N 67°17' E 014°22'0 0.0
2017-Jul-14 22:58N 67°17' E 014°22'0 0.0
2017-Jul-14 22:28N 67°17' E 014°22'0 0.0
2017-Jul-14 21:58N 67°17' E 014°22'0 0.0
2017-Jul-14 21:28N 67°17' E 014°22'0 0.0
2017-Jul-14 20:58N 67°17' E 014°22'0 0.0
2017-Jul-14 20:28N 67°17' E 014°22'0 0.0
2017-Jul-14 19:58N 67°17' E 014°22'0 0.0
2017-Jul-14 19:28N 67°17' E 014°22'0 0.0
2017-Jul-14 18:58N 67°17' E 014°22'0 0.0
2017-Jul-14 18:28N 67°17' E 014°22'0 0.0
2017-Jul-14 17:58N 67°17' E 014°22'0 0.0
2017-Jul-14 17:28N 67°17' E 014°22'0 0.0
2017-Jul-14 16:58N 67°17' E 014°22'0 0.0
2017-Jul-14 16:31N 67°17' E 014°22'816.5
2017-Jul-14 16:01N 67°17' E 014°01'713.9
2017-Jul-14 15:30N 67°18' E 013°43'714.6
2017-Jul-14 15:00N 67°24' E 013°54'815.5
2017-Jul-14 14:31N 67°24' E 014°14'714.7
2017-Jul-14 14:00N 67°17' E 014°22'1 1.3
2017-Jul-14 13:31N 67°17' E 014°24'1 2.0
2017-Jul-14 13:01N 67°18' E 014°22'1019.6
2017-Jul-14 12:28N 67°25' E 014°01'3 5.8
2017-Jul-14 11:59N 67°24' E 013°54'715.4
2017-Jul-14 11:31N 67°24' E 014°13'815.1
2017-Jul-14 11:00N 67°17' E 014°22'1 1.3
2017-Jul-14 10:30N 67°17' E 014°24'0 0.9
2017-Jul-14 10:00N 67°17' E 014°23'0 0.5
2017-Jul-14 09:30N 67°17' E 014°22'0 0.0
2017-Jul-14 09:00N 67°17' E 014°22'0 0.0
2017-Jul-14 08:30N 67°17' E 014°22'  

Dump ship's entire track history